sensor_id;sensor_type;location;lat;lon;timestamp;P1;durP1;ratioP1;P2;durP2;ratioP2
51686;SDS011;37774;52.192;4.584;2023-07-16T00:01:08;10.55;;;3.13;;
51686;SDS011;37774;52.192;4.584;2023-07-16T00:03:53;19.67;;;3.63;;
51686;SDS011;37774;52.192;4.584;2023-07-16T00:06:40;22.20;;;3.42;;
51686;SDS011;37774;52.192;4.584;2023-07-16T00:09:26;11.73;;;3.05;;
51686;SDS011;37774;52.192;4.584;2023-07-16T00:12:11;8.73;;;2.22;;
51686;SDS011;37774;52.192;4.584;2023-07-16T00:14:57;13.48;;;2.83;;
51686;SDS011;37774;52.192;4.584;2023-07-16T00:17:42;17.17;;;2.90;;
51686;SDS011;37774;52.192;4.584;2023-07-16T00:20:28;8.95;;;2.60;;
51686;SDS011;37774;52.192;4.584;2023-07-16T00:23:15;15.50;;;3.40;;
51686;SDS011;37774;52.192;4.584;2023-07-16T00:26:00;14.95;;;4.07;;
51686;SDS011;37774;52.192;4.584;2023-07-16T00:28:46;18.83;;;3.47;;
51686;SDS011;37774;52.192;4.584;2023-07-16T00:31:31;14.35;;;2.97;;
51686;SDS011;37774;52.192;4.584;2023-07-16T00:34:16;16.20;;;3.17;;
51686;SDS011;37774;52.192;4.584;2023-07-16T00:37:02;13.18;;;3.38;;
51686;SDS011;37774;52.192;4.584;2023-07-16T00:39:49;15.25;;;4.43;;
51686;SDS011;37774;52.192;4.584;2023-07-16T00:42:35;13.23;;;3.13;;
51686;SDS011;37774;52.192;4.584;2023-07-16T00:45:20;19.08;;;3.33;;
51686;SDS011;37774;52.192;4.584;2023-07-16T00:48:06;18.05;;;4.07;;
51686;SDS011;37774;52.192;4.584;2023-07-16T00:50:52;13.45;;;3.88;;
51686;SDS011;37774;52.192;4.584;2023-07-16T00:53:38;12.77;;;4.43;;
51686;SDS011;37774;52.192;4.584;2023-07-16T00:56:27;13.98;;;3.80;;
51686;SDS011;37774;52.192;4.584;2023-07-16T00:59:12;13.15;;;3.72;;
51686;SDS011;37774;52.192;4.584;2023-07-16T01:01:57;21.88;;;4.03;;
51686;SDS011;37774;52.192;4.584;2023-07-16T01:04:43;8.43;;;3.53;;
51686;SDS011;37774;52.192;4.584;2023-07-16T01:07:28;10.73;;;3.40;;
51686;SDS011;37774;52.192;4.584;2023-07-16T01:10:15;14.18;;;3.90;;
51686;SDS011;37774;52.192;4.584;2023-07-16T01:13:03;11.07;;;3.90;;
51686;SDS011;37774;52.192;4.584;2023-07-16T01:15:49;13.82;;;2.97;;
51686;SDS011;37774;52.192;4.584;2023-07-16T01:18:35;13.73;;;3.90;;
51686;SDS011;37774;52.192;4.584;2023-07-16T01:21:21;12.20;;;4.00;;
51686;SDS011;37774;52.192;4.584;2023-07-16T01:30:34;18.95;;;4.95;;
51686;SDS011;37774;52.192;4.584;2023-07-16T01:33:23;16.38;;;4.10;;
51686;SDS011;37774;52.192;4.584;2023-07-16T01:36:08;12.55;;;4.38;;
51686;SDS011;37774;52.192;4.584;2023-07-16T01:38:54;17.08;;;4.30;;
51686;SDS011;37774;52.192;4.584;2023-07-16T01:41:40;14.93;;;4.25;;
51686;SDS011;37774;52.192;4.584;2023-07-16T01:44:25;12.45;;;3.70;;
51686;SDS011;37774;52.192;4.584;2023-07-16T01:47:23;23.33;;;5.25;;
51686;SDS011;37774;52.192;4.584;2023-07-16T01:50:13;10.77;;;4.15;;
51686;SDS011;37774;52.192;4.584;2023-07-16T01:52:59;11.20;;;4.35;;
51686;SDS011;37774;52.192;4.584;2023-07-16T01:55:45;20.02;;;4.63;;
51686;SDS011;37774;52.192;4.584;2023-07-16T01:58:30;13.88;;;4.88;;
51686;SDS011;37774;52.192;4.584;2023-07-16T02:01:16;14.70;;;4.53;;
51686;SDS011;37774;52.192;4.584;2023-07-16T02:04:03;18.10;;;5.00;;
51686;SDS011;37774;52.192;4.584;2023-07-16T02:06:48;11.43;;;3.92;;
51686;SDS011;37774;52.192;4.584;2023-07-16T02:09:33;16.67;;;5.07;;
51686;SDS011;37774;52.192;4.584;2023-07-16T02:12:19;19.80;;;5.15;;
51686;SDS011;37774;52.192;4.584;2023-07-16T02:15:05;16.23;;;4.90;;
51686;SDS011;37774;52.192;4.584;2023-07-16T02:17:51;15.85;;;5.13;;
51686;SDS011;37774;52.192;4.584;2023-07-16T02:20:38;24.58;;;6.13;;
51686;SDS011;37774;52.192;4.584;2023-07-16T02:23:23;25.88;;;5.97;;
51686;SDS011;37774;52.192;4.584;2023-07-16T02:26:09;14.27;;;4.97;;
51686;SDS011;37774;52.192;4.584;2023-07-16T02:28:54;11.25;;;5.22;;
51686;SDS011;37774;52.192;4.584;2023-07-16T02:31:40;18.15;;;5.93;;
51686;SDS011;37774;52.192;4.584;2023-07-16T02:34:27;20.05;;;5.05;;
51686;SDS011;37774;52.192;4.584;2023-07-16T02:37:14;9.05;;;4.45;;
51686;SDS011;37774;52.192;4.584;2023-07-16T02:39:59;16.30;;;5.68;;
51686;SDS011;37774;52.192;4.584;2023-07-16T02:42:45;27.05;;;5.85;;
51686;SDS011;37774;52.192;4.584;2023-07-16T02:45:30;12.98;;;5.18;;
51686;SDS011;37774;52.192;4.584;2023-07-16T02:48:15;14.38;;;4.75;;
51686;SDS011;37774;52.192;4.584;2023-07-16T02:51:01;15.60;;;5.38;;
51686;SDS011;37774;52.192;4.584;2023-07-16T02:53:48;19.35;;;5.65;;
51686;SDS011;37774;52.192;4.584;2023-07-16T02:56:33;12.40;;;5.88;;
51686;SDS011;37774;52.192;4.584;2023-07-16T02:59:19;15.85;;;6.10;;
51686;SDS011;37774;52.192;4.584;2023-07-16T03:02:04;17.30;;;6.25;;
51686;SDS011;37774;52.192;4.584;2023-07-16T03:04:49;18.85;;;5.28;;
51686;SDS011;37774;52.192;4.584;2023-07-16T03:07:35;23.67;;;5.97;;
51686;SDS011;37774;52.192;4.584;2023-07-16T03:10:22;19.10;;;5.20;;
51686;SDS011;37774;52.192;4.584;2023-07-16T03:13:10;21.63;;;5.43;;
51686;SDS011;37774;52.192;4.584;2023-07-16T03:15:55;17.67;;;5.78;;
51686;SDS011;37774;52.192;4.584;2023-07-16T03:18:41;14.48;;;5.38;;
51686;SDS011;37774;52.192;4.584;2023-07-16T03:21:26;11.70;;;4.93;;
51686;SDS011;37774;52.192;4.584;2023-07-16T03:24:12;20.10;;;5.25;;
51686;SDS011;37774;52.192;4.584;2023-07-16T03:26:58;16.40;;;5.07;;
51686;SDS011;37774;52.192;4.584;2023-07-16T03:29:44;13.55;;;4.40;;
51686;SDS011;37774;52.192;4.584;2023-07-16T03:32:29;10.27;;;4.15;;
51686;SDS011;37774;52.192;4.584;2023-07-16T03:35:15;15.70;;;4.10;;
51686;SDS011;37774;52.192;4.584;2023-07-16T03:38:00;23.95;;;4.97;;
51686;SDS011;37774;52.192;4.584;2023-07-16T03:40:46;23.17;;;4.88;;
51686;SDS011;37774;52.192;4.584;2023-07-16T03:43:33;10.90;;;3.50;;
51686;SDS011;37774;52.192;4.584;2023-07-16T03:46:19;8.48;;;3.22;;
51686;SDS011;37774;52.192;4.584;2023-07-16T03:49:06;20.85;;;4.65;;
51686;SDS011;37774;52.192;4.584;2023-07-16T03:51:52;13.18;;;4.70;;
51686;SDS011;37774;52.192;4.584;2023-07-16T03:54:37;12.82;;;4.45;;
51686;SDS011;37774;52.192;4.584;2023-07-16T03:57:23;11.63;;;4.45;;
51686;SDS011;37774;52.192;4.584;2023-07-16T04:00:10;15.85;;;4.88;;
51686;SDS011;37774;52.192;4.584;2023-07-16T04:02:56;15.55;;;4.05;;
51686;SDS011;37774;52.192;4.584;2023-07-16T04:05:41;15.98;;;4.88;;
51686;SDS011;37774;52.192;4.584;2023-07-16T04:08:27;17.63;;;4.47;;
51686;SDS011;37774;52.192;4.584;2023-07-16T04:11:12;27.48;;;4.63;;
51686;SDS011;37774;52.192;4.584;2023-07-16T04:13:57;20.48;;;5.18;;
51686;SDS011;37774;52.192;4.584;2023-07-16T04:16:44;13.90;;;4.25;;
51686;SDS011;37774;52.192;4.584;2023-07-16T04:19:30;14.80;;;4.35;;
51686;SDS011;37774;52.192;4.584;2023-07-16T04:22:15;16.90;;;4.97;;
51686;SDS011;37774;52.192;4.584;2023-07-16T04:25:02;12.77;;;4.38;;
51686;SDS011;37774;52.192;4.584;2023-07-16T04:27:48;11.00;;;5.03;;
51686;SDS011;37774;52.192;4.584;2023-07-16T04:30:33;17.55;;;4.95;;
51686;SDS011;37774;52.192;4.584;2023-07-16T04:33:22;17.73;;;5.28;;
51686;SDS011;37774;52.192;4.584;2023-07-16T04:36:07;18.80;;;5.63;;
51686;SDS011;37774;52.192;4.584;2023-07-16T04:38:52;20.55;;;5.22;;
51686;SDS011;37774;52.192;4.584;2023-07-16T04:41:38;21.27;;;5.90;;
51686;SDS011;37774;52.192;4.584;2023-07-16T04:44:23;8.95;;;4.50;;
51686;SDS011;37774;52.192;4.584;2023-07-16T04:47:09;23.58;;;4.88;;
51686;SDS011;37774;52.192;4.584;2023-07-16T04:49:57;25.75;;;6.15;;
51686;SDS011;37774;52.192;4.584;2023-07-16T04:52:43;19.02;;;5.72;;
51686;SDS011;37774;52.192;4.584;2023-07-16T04:55:29;23.23;;;5.63;;
51686;SDS011;37774;52.192;4.584;2023-07-16T04:58:14;13.82;;;4.60;;
51686;SDS011;37774;52.192;4.584;2023-07-16T05:00:59;18.45;;;4.90;;
51686;SDS011;37774;52.192;4.584;2023-07-16T05:03:45;15.32;;;6.03;;
51686;SDS011;37774;52.192;4.584;2023-07-16T05:06:32;16.02;;;4.80;;
51686;SDS011;37774;52.192;4.584;2023-07-16T05:09:20;22.90;;;4.85;;
51686;SDS011;37774;52.192;4.584;2023-07-16T05:12:06;17.10;;;5.63;;
51686;SDS011;37774;52.192;4.584;2023-07-16T05:14:51;12.10;;;5.20;;
51686;SDS011;37774;52.192;4.584;2023-07-16T05:17:36;10.60;;;4.47;;
51686;SDS011;37774;52.192;4.584;2023-07-16T05:20:22;29.08;;;5.13;;
51686;SDS011;37774;52.192;4.584;2023-07-16T05:23:09;18.48;;;4.97;;
51686;SDS011;37774;52.192;4.584;2023-07-16T05:25:55;17.70;;;5.60;;
51686;SDS011;37774;52.192;4.584;2023-07-16T05:28:40;16.38;;;4.55;;
51686;SDS011;37774;52.192;4.584;2023-07-16T05:31:26;11.77;;;4.30;;
51686;SDS011;37774;52.192;4.584;2023-07-16T05:34:11;18.17;;;5.07;;
51686;SDS011;37774;52.192;4.584;2023-07-16T05:36:56;10.05;;;4.50;;
51686;SDS011;37774;52.192;4.584;2023-07-16T05:39:43;12.45;;;5.03;;
51686;SDS011;37774;52.192;4.584;2023-07-16T05:42:28;11.50;;;3.80;;
51686;SDS011;37774;52.192;4.584;2023-07-16T05:45:14;13.07;;;4.57;;
51686;SDS011;37774;52.192;4.584;2023-07-16T05:47:59;10.32;;;4.10;;
51686;SDS011;37774;52.192;4.584;2023-07-16T05:50:45;15.93;;;4.70;;
51686;SDS011;37774;52.192;4.584;2023-07-16T05:53:30;9.82;;;4.57;;
51686;SDS011;37774;52.192;4.584;2023-07-16T05:56:17;10.23;;;3.47;;
51686;SDS011;37774;52.192;4.584;2023-07-16T05:59:02;9.43;;;4.13;;
51686;SDS011;37774;52.192;4.584;2023-07-16T06:01:48;16.70;;;4.50;;
51686;SDS011;37774;52.192;4.584;2023-07-16T06:04:33;12.15;;;4.15;;
51686;SDS011;37774;52.192;4.584;2023-07-16T06:07:18;17.52;;;4.30;;
51686;SDS011;37774;52.192;4.584;2023-07-16T06:10:04;15.13;;;4.45;;
51686;SDS011;37774;52.192;4.584;2023-07-16T06:12:52;13.88;;;5.22;;
51686;SDS011;37774;52.192;4.584;2023-07-16T06:15:37;17.25;;;5.35;;
51686;SDS011;37774;52.192;4.584;2023-07-16T06:18:23;18.58;;;3.90;;
51686;SDS011;37774;52.192;4.584;2023-07-16T06:21:08;19.60;;;5.10;;
51686;SDS011;37774;52.192;4.584;2023-07-16T06:23:54;13.57;;;5.07;;
51686;SDS011;37774;52.192;4.584;2023-07-16T06:26:39;12.75;;;5.07;;
51686;SDS011;37774;52.192;4.584;2023-07-16T06:29:26;11.40;;;4.82;;
51686;SDS011;37774;52.192;4.584;2023-07-16T06:32:11;13.77;;;3.55;;
51686;SDS011;37774;52.192;4.584;2023-07-16T06:34:57;13.57;;;4.55;;
51686;SDS011;37774;52.192;4.584;2023-07-16T06:37:42;14.75;;;5.10;;
51686;SDS011;37774;52.192;4.584;2023-07-16T06:40:28;14.50;;;4.93;;
51686;SDS011;37774;52.192;4.584;2023-07-16T06:43:14;18.50;;;5.00;;
51686;SDS011;37774;52.192;4.584;2023-07-16T06:46:00;16.58;;;5.30;;
51686;SDS011;37774;52.192;4.584;2023-07-16T06:48:47;19.27;;;5.30;;
51686;SDS011;37774;52.192;4.584;2023-07-16T06:51:32;18.73;;;4.20;;
51686;SDS011;37774;52.192;4.584;2023-07-16T06:54:18;19.45;;;4.32;;
51686;SDS011;37774;52.192;4.584;2023-07-16T06:57:04;14.45;;;3.78;;
51686;SDS011;37774;52.192;4.584;2023-07-16T06:59:49;14.57;;;3.90;;
51686;SDS011;37774;52.192;4.584;2023-07-16T07:02:36;9.48;;;3.83;;
51686;SDS011;37774;52.192;4.584;2023-07-16T07:05:22;18.30;;;4.60;;
51686;SDS011;37774;52.192;4.584;2023-07-16T07:08:07;19.30;;;4.68;;
51686;SDS011;37774;52.192;4.584;2023-07-16T07:10:53;15.48;;;4.15;;
51686;SDS011;37774;52.192;4.584;2023-07-16T07:13:38;16.88;;;4.53;;
51686;SDS011;37774;52.192;4.584;2023-07-16T07:16:24;14.95;;;5.05;;
51686;SDS011;37774;52.192;4.584;2023-07-16T07:19:11;12.75;;;5.10;;
51686;SDS011;37774;52.192;4.584;2023-07-16T07:21:56;16.90;;;4.68;;
51686;SDS011;37774;52.192;4.584;2023-07-16T07:24:42;7.00;;;4.18;;
51686;SDS011;37774;52.192;4.584;2023-07-16T07:27:28;9.88;;;4.22;;
51686;SDS011;37774;52.192;4.584;2023-07-16T07:30:13;13.43;;;4.47;;
51686;SDS011;37774;52.192;4.584;2023-07-16T07:32:59;11.68;;;4.10;;
51686;SDS011;37774;52.192;4.584;2023-07-16T07:35:46;14.88;;;5.50;;
51686;SDS011;37774;52.192;4.584;2023-07-16T07:38:31;20.27;;;5.00;;
51686;SDS011;37774;52.192;4.584;2023-07-16T07:41:17;13.45;;;4.65;;
51686;SDS011;37774;52.192;4.584;2023-07-16T07:44:02;15.40;;;5.07;;
51686;SDS011;37774;52.192;4.584;2023-07-16T07:46:47;17.38;;;4.30;;
51686;SDS011;37774;52.192;4.584;2023-07-16T07:49:33;19.52;;;5.70;;
51686;SDS011;37774;52.192;4.584;2023-07-16T07:52:20;20.33;;;5.70;;
51686;SDS011;37774;52.192;4.584;2023-07-16T07:55:05;16.52;;;4.32;;
51686;SDS011;37774;52.192;4.584;2023-07-16T07:57:51;13.48;;;5.47;;
51686;SDS011;37774;52.192;4.584;2023-07-16T08:00:37;11.63;;;3.75;;
51686;SDS011;37774;52.192;4.584;2023-07-16T08:03:22;14.27;;;4.43;;
51686;SDS011;37774;52.192;4.584;2023-07-16T08:06:08;14.88;;;3.97;;
51686;SDS011;37774;52.192;4.584;2023-07-16T08:08:57;12.63;;;3.80;;
51686;SDS011;37774;52.192;4.584;2023-07-16T08:11:42;9.55;;;3.65;;
51686;SDS011;37774;52.192;4.584;2023-07-16T13:32:31;10.95;;;1.95;;
51686;SDS011;37774;52.192;4.584;2023-07-16T13:38:01;17.17;;;2.28;;
51686;SDS011;37774;52.192;4.584;2023-07-16T13:40:47;10.88;;;2.30;;
51686;SDS011;37774;52.192;4.584;2023-07-16T13:43:34;16.08;;;2.10;;
51686;SDS011;37774;52.192;4.584;2023-07-16T13:46:19;17.63;;;2.40;;
51686;SDS011;37774;52.192;4.584;2023-07-16T13:49:06;13.18;;;2.10;;
51686;SDS011;37774;52.192;4.584;2023-07-16T13:51:51;12.48;;;1.85;;
51686;SDS011;37774;52.192;4.584;2023-07-16T13:54:36;18.80;;;2.50;;
51686;SDS011;37774;52.192;4.584;2023-07-16T13:57:22;11.77;;;2.67;;
51686;SDS011;37774;52.192;4.584;2023-07-16T14:00:08;11.68;;;1.92;;
51686;SDS011;37774;52.192;4.584;2023-07-16T14:02:54;19.17;;;2.35;;
51686;SDS011;37774;52.192;4.584;2023-07-16T14:05:41;8.63;;;1.52;;
51686;SDS011;37774;52.192;4.584;2023-07-16T14:08:26;11.50;;;1.80;;
51686;SDS011;37774;52.192;4.584;2023-07-16T14:11:13;13.48;;;2.08;;
51686;SDS011;37774;52.192;4.584;2023-07-16T14:13:59;14.55;;;2.20;;
51686;SDS011;37774;52.192;4.584;2023-07-16T14:16:45;7.68;;;1.15;;
51686;SDS011;37774;52.192;4.584;2023-07-16T14:19:30;14.68;;;1.25;;
51686;SDS011;37774;52.192;4.584;2023-07-16T14:22:17;15.80;;;1.77;;
51686;SDS011;37774;52.192;4.584;2023-07-16T14:25:02;11.23;;;1.77;;
51686;SDS011;37774;52.192;4.584;2023-07-16T14:27:49;17.77;;;2.97;;
51686;SDS011;37774;52.192;4.584;2023-07-16T14:30:34;9.25;;;1.88;;
51686;SDS011;37774;52.192;4.584;2023-07-16T14:33:20;7.50;;;2.05;;
51686;SDS011;37774;52.192;4.584;2023-07-16T14:36:06;11.70;;;2.42;;
51686;SDS011;37774;52.192;4.584;2023-07-16T14:38:52;10.07;;;1.55;;
51686;SDS011;37774;52.192;4.584;2023-07-16T14:41:38;10.30;;;2.00;;
51686;SDS011;37774;52.192;4.584;2023-07-16T14:44:23;8.13;;;2.60;;
51686;SDS011;37774;52.192;4.584;2023-07-16T14:47:09;9.50;;;1.48;;
51686;SDS011;37774;52.192;4.584;2023-07-16T14:49:54;20.48;;;2.28;;
51686;SDS011;37774;52.192;4.584;2023-07-16T14:52:40;16.48;;;2.08;;
51686;SDS011;37774;52.192;4.584;2023-07-16T14:55:26;18.17;;;1.52;;
51686;SDS011;37774;52.192;4.584;2023-07-16T14:58:12;14.98;;;2.08;;
51686;SDS011;37774;52.192;4.584;2023-07-16T15:00:58;27.45;;;2.75;;
51686;SDS011;37774;52.192;4.584;2023-07-16T15:06:30;13.38;;;1.95;;
51686;SDS011;37774;52.192;4.584;2023-07-16T15:09:16;17.67;;;3.78;;
51686;SDS011;37774;52.192;4.584;2023-07-16T15:12:03;20.92;;;2.20;;
51686;SDS011;37774;52.192;4.584;2023-07-16T15:14:49;18.95;;;3.17;;
51686;SDS011;37774;52.192;4.584;2023-07-16T15:17:34;10.48;;;1.77;;
51686;SDS011;37774;52.192;4.584;2023-07-16T15:20:20;14.25;;;2.10;;
51686;SDS011;37774;52.192;4.584;2023-07-16T15:23:07;18.05;;;3.55;;
51686;SDS011;37774;52.192;4.584;2023-07-16T15:25:52;10.70;;;2.22;;
51686;SDS011;37774;52.192;4.584;2023-07-16T15:28:39;16.02;;;2.53;;
51686;SDS011;37774;52.192;4.584;2023-07-16T15:31:27;20.65;;;2.78;;
51686;SDS011;37774;52.192;4.584;2023-07-16T15:34:12;20.45;;;2.10;;
51686;SDS011;37774;52.192;4.584;2023-07-16T15:36:58;17.45;;;2.00;;
51686;SDS011;37774;52.192;4.584;2023-07-16T15:39:44;13.48;;;1.77;;
51686;SDS011;37774;52.192;4.584;2023-07-16T15:42:29;16.60;;;2.33;;
51686;SDS011;37774;52.192;4.584;2023-07-16T15:45:16;15.15;;;2.05;;
51686;SDS011;37774;52.192;4.584;2023-07-16T15:48:02;17.20;;;1.95;;
51686;SDS011;37774;52.192;4.584;2023-07-16T15:50:48;21.73;;;2.70;;
51686;SDS011;37774;52.192;4.584;2023-07-16T15:53:34;11.97;;;2.30;;
51686;SDS011;37774;52.192;4.584;2023-07-16T15:56:20;19.90;;;2.55;;
51686;SDS011;37774;52.192;4.584;2023-07-16T15:59:06;16.90;;;1.70;;
51686;SDS011;37774;52.192;4.584;2023-07-16T16:01:53;11.88;;;1.63;;
51686;SDS011;37774;52.192;4.584;2023-07-16T16:04:38;7.70;;;1.60;;
51686;SDS011;37774;52.192;4.584;2023-07-16T16:07:23;9.70;;;1.75;;
51686;SDS011;37774;52.192;4.584;2023-07-16T16:10:09;6.13;;;1.20;;
51686;SDS011;37774;52.192;4.584;2023-07-16T16:12:54;16.90;;;1.40;;
51686;SDS011;37774;52.192;4.584;2023-07-16T16:15:39;7.53;;;1.35;;
51686;SDS011;37774;52.192;4.584;2023-07-16T16:18:26;8.93;;;1.27;;
51686;SDS011;37774;52.192;4.584;2023-07-16T16:21:11;6.43;;;1.67;;
51686;SDS011;37774;52.192;4.584;2023-07-16T16:23:57;10.95;;;1.85;;
51686;SDS011;37774;52.192;4.584;2023-07-16T16:29:29;4.90;;;1.48;;
51686;SDS011;37774;52.192;4.584;2023-07-16T16:32:15;6.15;;;1.13;;
51686;SDS011;37774;52.192;4.584;2023-07-16T16:35:02;2.72;;;1.08;;
51686;SDS011;37774;52.192;4.584;2023-07-16T16:37:48;15.35;;;1.48;;
51686;SDS011;37774;52.192;4.584;2023-07-16T16:40:35;8.37;;;1.33;;
51686;SDS011;37774;52.192;4.584;2023-07-16T16:43:21;6.53;;;1.60;;
51686;SDS011;37774;52.192;4.584;2023-07-16T16:46:07;3.63;;;1.10;;
51686;SDS011;37774;52.192;4.584;2023-07-16T16:48:52;5.65;;;1.23;;
51686;SDS011;37774;52.192;4.584;2023-07-16T16:51:39;14.75;;;2.13;;
51686;SDS011;37774;52.192;4.584;2023-07-16T16:54:25;10.35;;;2.25;;
51686;SDS011;37774;52.192;4.584;2023-07-16T16:57:10;9.82;;;1.40;;
51686;SDS011;37774;52.192;4.584;2023-07-16T16:59:55;9.05;;;1.17;;
51686;SDS011;37774;52.192;4.584;2023-07-16T17:02:41;6.85;;;1.50;;
51686;SDS011;37774;52.192;4.584;2023-07-16T17:05:26;12.77;;;1.48;;
51686;SDS011;37774;52.192;4.584;2023-07-16T17:08:14;10.88;;;1.45;;
51686;SDS011;37774;52.192;4.584;2023-07-16T17:10:59;10.68;;;1.90;;
51686;SDS011;37774;52.192;4.584;2023-07-16T17:13:45;6.78;;;1.77;;
51686;SDS011;37774;52.192;4.584;2023-07-16T17:16:30;6.07;;;1.80;;
51686;SDS011;37774;52.192;4.584;2023-07-16T17:19:16;8.50;;;1.67;;
51686;SDS011;37774;52.192;4.584;2023-07-16T17:22:01;3.35;;;0.75;;
51686;SDS011;37774;52.192;4.584;2023-07-16T17:24:48;6.13;;;1.25;;
51686;SDS011;37774;52.192;4.584;2023-07-16T17:27:35;6.00;;;0.95;;
51686;SDS011;37774;52.192;4.584;2023-07-16T17:30:21;9.27;;;1.23;;
51686;SDS011;37774;52.192;4.584;2023-07-16T17:33:07;11.52;;;1.63;;
51686;SDS011;37774;52.192;4.584;2023-07-16T17:35:53;11.15;;;1.42;;
51686;SDS011;37774;52.192;4.584;2023-07-16T17:38:39;12.50;;;1.75;;
51686;SDS011;37774;52.192;4.584;2023-07-16T17:41:25;5.72;;;1.70;;
51686;SDS011;37774;52.192;4.584;2023-07-16T17:44:11;9.15;;;1.73;;
51686;SDS011;37774;52.192;4.584;2023-07-16T17:46:57;12.30;;;1.92;;
51686;SDS011;37774;52.192;4.584;2023-07-16T17:49:42;16.10;;;2.00;;
51686;SDS011;37774;52.192;4.584;2023-07-16T17:52:28;3.63;;;1.08;;
51686;SDS011;37774;52.192;4.584;2023-07-16T17:55:14;8.32;;;1.60;;
51686;SDS011;37774;52.192;4.584;2023-07-16T17:58:01;4.88;;;1.08;;
51686;SDS011;37774;52.192;4.584;2023-07-16T18:00:54;5.85;;;1.48;;
51686;SDS011;37774;52.192;4.584;2023-07-16T18:03:42;8.82;;;1.45;;
51686;SDS011;37774;52.192;4.584;2023-07-16T18:06:27;10.23;;;1.58;;
51686;SDS011;37774;52.192;4.584;2023-07-16T18:09:13;12.90;;;1.73;;
51686;SDS011;37774;52.192;4.584;2023-07-16T18:11:59;12.25;;;1.35;;
51686;SDS011;37774;52.192;4.584;2023-07-16T18:14:47;8.35;;;1.60;;
51686;SDS011;37774;52.192;4.584;2023-07-16T18:17:32;7.47;;;1.33;;
51686;SDS011;37774;52.192;4.584;2023-07-16T18:20:18;11.52;;;1.98;;
51686;SDS011;37774;52.192;4.584;2023-07-16T18:23:03;9.73;;;1.52;;
51686;SDS011;37774;52.192;4.584;2023-07-16T18:25:49;7.13;;;1.80;;
51686;SDS011;37774;52.192;4.584;2023-07-16T18:28:34;11.77;;;1.90;;
51686;SDS011;37774;52.192;4.584;2023-07-16T18:31:21;16.33;;;1.95;;
51686;SDS011;37774;52.192;4.584;2023-07-16T18:34:07;9.88;;;1.70;;
51686;SDS011;37774;52.192;4.584;2023-07-16T18:36:53;7.28;;;2.15;;
51686;SDS011;37774;52.192;4.584;2023-07-16T18:39:38;5.18;;;1.50;;
51686;SDS011;37774;52.192;4.584;2023-07-16T18:42:23;8.35;;;1.60;;
51686;SDS011;37774;52.192;4.584;2023-07-16T18:45:10;13.53;;;1.63;;
51686;SDS011;37774;52.192;4.584;2023-07-16T18:47:57;13.43;;;2.17;;
51686;SDS011;37774;52.192;4.584;2023-07-16T18:50:42;13.00;;;2.47;;
51686;SDS011;37774;52.192;4.584;2023-07-16T18:53:28;9.20;;;2.00;;
51686;SDS011;37774;52.192;4.584;2023-07-16T18:56:16;9.85;;;1.50;;
51686;SDS011;37774;52.192;4.584;2023-07-16T18:59:01;8.73;;;1.98;;
51686;SDS011;37774;52.192;4.584;2023-07-16T19:01:47;8.93;;;2.22;;
51686;SDS011;37774;52.192;4.584;2023-07-16T19:04:34;9.02;;;2.05;;
51686;SDS011;37774;52.192;4.584;2023-07-16T19:07:19;11.55;;;1.60;;
51686;SDS011;37774;52.192;4.584;2023-07-16T19:10:05;10.00;;;1.40;;
51686;SDS011;37774;52.192;4.584;2023-07-16T19:12:52;5.35;;;1.33;;
51686;SDS011;37774;52.192;4.584;2023-07-16T19:15:37;11.38;;;2.17;;
51686;SDS011;37774;52.192;4.584;2023-07-16T19:18:22;9.48;;;1.70;;
51686;SDS011;37774;52.192;4.584;2023-07-16T19:21:09;10.82;;;1.95;;
51686;SDS011;37774;52.192;4.584;2023-07-16T19:23:55;12.32;;;2.75;;
51686;SDS011;37774;52.192;4.584;2023-07-16T19:26:40;17.65;;;2.00;;
51686;SDS011;37774;52.192;4.584;2023-07-16T19:29:25;17.98;;;2.20;;
51686;SDS011;37774;52.192;4.584;2023-07-16T19:32:11;8.70;;;2.30;;
51686;SDS011;37774;52.192;4.584;2023-07-16T19:34:56;8.35;;;1.83;;
51686;SDS011;37774;52.192;4.584;2023-07-16T19:37:44;11.52;;;1.77;;
51686;SDS011;37774;52.192;4.584;2023-07-16T19:40:29;12.68;;;1.92;;
51686;SDS011;37774;52.192;4.584;2023-07-16T19:43:15;10.85;;;1.73;;
51686;SDS011;37774;52.192;4.584;2023-07-16T19:46:01;10.05;;;2.13;;
51686;SDS011;37774;52.192;4.584;2023-07-16T19:48:48;13.95;;;2.33;;
51686;SDS011;37774;52.192;4.584;2023-07-16T19:51:34;6.68;;;1.75;;
51686;SDS011;37774;52.192;4.584;2023-07-16T19:54:21;13.65;;;2.42;;
51686;SDS011;37774;52.192;4.584;2023-07-16T19:57:06;13.27;;;1.80;;
51686;SDS011;37774;52.192;4.584;2023-07-16T19:59:52;13.82;;;2.03;;
51686;SDS011;37774;52.192;4.584;2023-07-16T20:02:38;12.60;;;2.15;;
51686;SDS011;37774;52.192;4.584;2023-07-16T20:05:23;11.15;;;1.45;;
51686;SDS011;37774;52.192;4.584;2023-07-16T20:08:09;17.23;;;2.95;;
51686;SDS011;37774;52.192;4.584;2023-07-16T20:10:58;20.20;;;2.30;;
51686;SDS011;37774;52.192;4.584;2023-07-16T20:13:44;19.42;;;2.58;;
51686;SDS011;37774;52.192;4.584;2023-07-16T20:16:29;13.43;;;2.58;;
51686;SDS011;37774;52.192;4.584;2023-07-16T20:19:15;16.63;;;2.33;;
51686;SDS011;37774;52.192;4.584;2023-07-16T20:22:01;7.72;;;1.77;;
51686;SDS011;37774;52.192;4.584;2023-07-16T20:24:46;7.90;;;2.30;;
51686;SDS011;37774;52.192;4.584;2023-07-16T20:27:33;9.73;;;2.05;;
51686;SDS011;37774;52.192;4.584;2023-07-16T20:30:18;14.65;;;2.80;;
51686;SDS011;37774;52.192;4.584;2023-07-16T20:33:04;7.78;;;2.83;;
51686;SDS011;37774;52.192;4.584;2023-07-16T20:35:49;8.10;;;1.80;;
51686;SDS011;37774;52.192;4.584;2023-07-16T20:38:34;17.17;;;2.08;;
51686;SDS011;37774;52.192;4.584;2023-07-16T20:41:20;9.93;;;2.20;;
51686;SDS011;37774;52.192;4.584;2023-07-16T20:44:06;19.10;;;2.45;;
51686;SDS011;37774;52.192;4.584;2023-07-16T20:46:52;7.53;;;1.60;;
51686;SDS011;37774;52.192;4.584;2023-07-16T20:49:37;9.50;;;1.80;;
51686;SDS011;37774;52.192;4.584;2023-07-16T20:52:23;17.85;;;2.05;;
51686;SDS011;37774;52.192;4.584;2023-07-16T20:55:08;13.10;;;1.80;;
51686;SDS011;37774;52.192;4.584;2023-07-16T20:57:55;11.00;;;2.13;;
51686;SDS011;37774;52.192;4.584;2023-07-16T21:00:41;13.13;;;1.75;;
51686;SDS011;37774;52.192;4.584;2023-07-16T21:03:27;10.13;;;1.67;;
51686;SDS011;37774;52.192;4.584;2023-07-16T21:06:14;18.38;;;1.42;;
51686;SDS011;37774;52.192;4.584;2023-07-16T21:09:00;11.07;;;1.60;;
51686;SDS011;37774;52.192;4.584;2023-07-16T21:11:45;13.88;;;2.33;;
51686;SDS011;37774;52.192;4.584;2023-07-16T21:14:31;12.70;;;1.60;;
51686;SDS011;37774;52.192;4.584;2023-07-16T21:17:18;11.57;;;1.50;;
51686;SDS011;37774;52.192;4.584;2023-07-16T21:20:04;8.68;;;1.50;;
51686;SDS011;37774;52.192;4.584;2023-07-16T21:22:53;8.05;;;1.77;;
51686;SDS011;37774;52.192;4.584;2023-07-16T21:25:38;5.35;;;1.45;;
51686;SDS011;37774;52.192;4.584;2023-07-16T21:28:24;12.97;;;1.97;;
51686;SDS011;37774;52.192;4.584;2023-07-16T21:31:10;10.82;;;1.58;;
51686;SDS011;37774;52.192;4.584;2023-07-16T21:33:56;6.50;;;2.30;;
51686;SDS011;37774;52.192;4.584;2023-07-16T21:36:42;13.95;;;1.73;;
51686;SDS011;37774;52.192;4.584;2023-07-16T21:39:27;8.27;;;2.38;;
51686;SDS011;37774;52.192;4.584;2023-07-16T21:42:12;12.23;;;1.70;;
51686;SDS011;37774;52.192;4.584;2023-07-16T21:44:58;5.82;;;1.73;;
51686;SDS011;37774;52.192;4.584;2023-07-16T21:47:43;9.70;;;1.35;;
51686;SDS011;37774;52.192;4.584;2023-07-16T21:50:31;8.25;;;1.38;;
51686;SDS011;37774;52.192;4.584;2023-07-16T21:53:16;19.15;;;2.90;;
51686;SDS011;37774;52.192;4.584;2023-07-16T21:56:02;12.80;;;1.92;;
51686;SDS011;37774;52.192;4.584;2023-07-16T21:58:47;11.40;;;1.60;;
51686;SDS011;37774;52.192;4.584;2023-07-16T22:01:33;10.93;;;1.73;;